sensor_id;sensor_type;location;lat;lon;timestamp;P1;durP1;ratioP1;P2;durP2;ratioP2
2868;SDS011;1442;47.448;8.582;2024-01-30T00:00:43;13.00;;;7.75;;
2868;SDS011;1442;47.448;8.582;2024-01-30T00:03:09;16.67;;;7.03;;
2868;SDS011;1442;47.448;8.582;2024-01-30T00:05:38;12.50;;;7.10;;
2868;SDS011;1442;47.448;8.582;2024-01-30T00:08:05;11.63;;;6.55;;
2868;SDS011;1442;47.448;8.582;2024-01-30T00:10:32;18.92;;;6.68;;
2868;SDS011;1442;47.448;8.582;2024-01-30T00:12:59;10.07;;;6.85;;
2868;SDS011;1442;47.448;8.582;2024-01-30T00:15:26;14.85;;;7.55;;
2868;SDS011;1442;47.448;8.582;2024-01-30T00:17:53;11.75;;;7.13;;
2868;SDS011;1442;47.448;8.582;2024-01-30T00:20:20;21.15;;;8.20;;
2868;SDS011;1442;47.448;8.582;2024-01-30T00:22:49;12.68;;;7.45;;
2868;SDS011;1442;47.448;8.582;2024-01-30T00:25:15;12.07;;;7.18;;
2868;SDS011;1442;47.448;8.582;2024-01-30T00:27:42;12.70;;;7.47;;
2868;SDS011;1442;47.448;8.582;2024-01-30T00:30:09;12.27;;;8.05;;
2868;SDS011;1442;47.448;8.582;2024-01-30T00:32:37;15.90;;;7.10;;
2868;SDS011;1442;47.448;8.582;2024-01-30T00:35:04;30.70;;;7.45;;
2868;SDS011;1442;47.448;8.582;2024-01-30T00:37:32;20.80;;;6.82;;
2868;SDS011;1442;47.448;8.582;2024-01-30T00:40:00;16.95;;;6.78;;
2868;SDS011;1442;47.448;8.582;2024-01-30T00:42:27;9.20;;;5.97;;
2868;SDS011;1442;47.448;8.582;2024-01-30T00:44:53;9.95;;;6.88;;
2868;SDS011;1442;47.448;8.582;2024-01-30T00:47:20;10.73;;;6.40;;
2868;SDS011;1442;47.448;8.582;2024-01-30T00:49:47;8.18;;;5.63;;
2868;SDS011;1442;47.448;8.582;2024-01-30T00:52:14;13.70;;;6.07;;
2868;SDS011;1442;47.448;8.582;2024-01-30T00:54:41;10.43;;;6.35;;
2868;SDS011;1442;47.448;8.582;2024-01-30T00:57:09;9.93;;;6.45;;
2868;SDS011;1442;47.448;8.582;2024-01-30T00:59:36;16.05;;;6.70;;
2868;SDS011;1442;47.448;8.582;2024-01-30T01:02:03;12.88;;;6.00;;
2868;SDS011;1442;47.448;8.582;2024-01-30T01:04:30;15.07;;;6.45;;
2868;SDS011;1442;47.448;8.582;2024-01-30T01:06:57;11.52;;;5.70;;
2868;SDS011;1442;47.448;8.582;2024-01-30T01:09:24;12.23;;;5.70;;
2868;SDS011;1442;47.448;8.582;2024-01-30T01:11:51;11.38;;;6.07;;
2868;SDS011;1442;47.448;8.582;2024-01-30T01:14:19;8.13;;;6.00;;
2868;SDS011;1442;47.448;8.582;2024-01-30T01:16:46;10.32;;;6.72;;
2868;SDS011;1442;47.448;8.582;2024-01-30T01:19:13;10.73;;;7.47;;
2868;SDS011;1442;47.448;8.582;2024-01-30T01:21:40;12.23;;;7.05;;
2868;SDS011;1442;47.448;8.582;2024-01-30T01:24:07;10.77;;;6.65;;
2868;SDS011;1442;47.448;8.582;2024-01-30T01:26:34;11.00;;;7.28;;
2868;SDS011;1442;47.448;8.582;2024-01-30T01:29:01;13.88;;;7.30;;
2868;SDS011;1442;47.448;8.582;2024-01-30T01:31:30;9.32;;;6.45;;
2868;SDS011;1442;47.448;8.582;2024-01-30T01:33:57;9.98;;;7.78;;
2868;SDS011;1442;47.448;8.582;2024-01-30T01:36:24;12.27;;;7.50;;
2868;SDS011;1442;47.448;8.582;2024-01-30T01:38:51;10.80;;;7.45;;
2868;SDS011;1442;47.448;8.582;2024-01-30T01:41:18;10.07;;;6.90;;
2868;SDS011;1442;47.448;8.582;2024-01-30T01:43:44;8.95;;;6.75;;
2868;SDS011;1442;47.448;8.582;2024-01-30T01:46:11;10.82;;;7.15;;
2868;SDS011;1442;47.448;8.582;2024-01-30T01:48:41;9.65;;;6.45;;
2868;SDS011;1442;47.448;8.582;2024-01-30T01:51:09;10.80;;;7.55;;
2868;SDS011;1442;47.448;8.582;2024-01-30T01:53:37;11.85;;;6.93;;
2868;SDS011;1442;47.448;8.582;2024-01-30T01:56:04;8.88;;;6.43;;
2868;SDS011;1442;47.448;8.582;2024-01-30T01:58:32;9.82;;;6.35;;
2868;SDS011;1442;47.448;8.582;2024-01-30T02:00:59;7.75;;;5.45;;
2868;SDS011;1442;47.448;8.582;2024-01-30T02:03:26;8.07;;;5.50;;
2868;SDS011;1442;47.448;8.582;2024-01-30T02:05:54;7.35;;;5.10;;
2868;SDS011;1442;47.448;8.582;2024-01-30T02:08:22;7.78;;;5.20;;
2868;SDS011;1442;47.448;8.582;2024-01-30T02:10:49;6.00;;;5.07;;
2868;SDS011;1442;47.448;8.582;2024-01-30T02:13:16;7.45;;;4.85;;
2868;SDS011;1442;47.448;8.582;2024-01-30T02:15:43;7.25;;;5.32;;
2868;SDS011;1442;47.448;8.582;2024-01-30T02:18:14;6.65;;;5.10;;
2868;SDS011;1442;47.448;8.582;2024-01-30T02:20:41;6.45;;;4.68;;
2868;SDS011;1442;47.448;8.582;2024-01-30T02:23:10;6.57;;;4.65;;
2868;SDS011;1442;47.448;8.582;2024-01-30T02:25:40;6.03;;;4.63;;
2868;SDS011;1442;47.448;8.582;2024-01-30T02:28:09;5.00;;;4.30;;
2868;SDS011;1442;47.448;8.582;2024-01-30T02:30:36;5.03;;;4.03;;
2868;SDS011;1442;47.448;8.582;2024-01-30T02:33:03;6.40;;;4.72;;
2868;SDS011;1442;47.448;8.582;2024-01-30T02:35:30;6.32;;;4.28;;
2868;SDS011;1442;47.448;8.582;2024-01-30T02:37:58;5.43;;;4.60;;
2868;SDS011;1442;47.448;8.582;2024-01-30T02:40:26;6.95;;;4.88;;
2868;SDS011;1442;47.448;8.582;2024-01-30T02:42:53;7.40;;;4.72;;
2868;SDS011;1442;47.448;8.582;2024-01-30T02:45:20;8.10;;;4.55;;
2868;SDS011;1442;47.448;8.582;2024-01-30T02:47:47;7.03;;;5.00;;
2868;SDS011;1442;47.448;8.582;2024-01-30T02:50:14;6.78;;;4.70;;
2868;SDS011;1442;47.448;8.582;2024-01-30T02:52:41;6.18;;;4.88;;
2868;SDS011;1442;47.448;8.582;2024-01-30T02:55:08;7.03;;;4.75;;
2868;SDS011;1442;47.448;8.582;2024-01-30T02:57:37;6.07;;;4.30;;
2868;SDS011;1442;47.448;8.582;2024-01-30T03:00:04;5.15;;;4.20;;
2868;SDS011;1442;47.448;8.582;2024-01-30T03:02:34;4.57;;;3.95;;
2868;SDS011;1442;47.448;8.582;2024-01-30T03:05:01;7.07;;;4.75;;
2868;SDS011;1442;47.448;8.582;2024-01-30T03:07:28;4.13;;;3.47;;
2868;SDS011;1442;47.448;8.582;2024-01-30T03:09:55;5.20;;;4.20;;
2868;SDS011;1442;47.448;8.582;2024-01-30T03:12:22;5.30;;;4.07;;
2868;SDS011;1442;47.448;8.582;2024-01-30T03:14:50;5.65;;;4.45;;
2868;SDS011;1442;47.448;8.582;2024-01-30T03:17:17;7.15;;;4.18;;
2868;SDS011;1442;47.448;8.582;2024-01-30T03:19:44;4.00;;;3.50;;
2868;SDS011;1442;47.448;8.582;2024-01-30T03:22:11;5.22;;;3.83;;
2868;SDS011;1442;47.448;8.582;2024-01-30T03:24:38;5.80;;;4.30;;
2868;SDS011;1442;47.448;8.582;2024-01-30T03:27:05;5.75;;;4.05;;
2868;SDS011;1442;47.448;8.582;2024-01-30T03:29:32;5.80;;;4.30;;
2868;SDS011;1442;47.448;8.582;2024-01-30T03:32:00;5.03;;;3.97;;
2868;SDS011;1442;47.448;8.582;2024-01-30T03:34:29;7.15;;;4.90;;
2868;SDS011;1442;47.448;8.582;2024-01-30T03:36:55;7.10;;;5.00;;
2868;SDS011;1442;47.448;8.582;2024-01-30T03:39:22;7.25;;;4.13;;
2868;SDS011;1442;47.448;8.582;2024-01-30T03:41:49;6.32;;;4.30;;
2868;SDS011;1442;47.448;8.582;2024-01-30T03:44:16;6.32;;;4.47;;
2868;SDS011;1442;47.448;8.582;2024-01-30T03:46:43;6.90;;;4.32;;
2868;SDS011;1442;47.448;8.582;2024-01-30T03:49:11;6.72;;;4.40;;
2868;SDS011;1442;47.448;8.582;2024-01-30T03:51:38;5.15;;;4.18;;
2868;SDS011;1442;47.448;8.582;2024-01-30T03:54:05;4.40;;;3.70;;
2868;SDS011;1442;47.448;8.582;2024-01-30T03:56:32;5.60;;;4.10;;
2868;SDS011;1442;47.448;8.582;2024-01-30T03:58:59;5.65;;;4.10;;
2868;SDS011;1442;47.448;8.582;2024-01-30T04:01:27;5.90;;;4.13;;
2868;SDS011;1442;47.448;8.582;2024-01-30T04:03:54;5.82;;;4.47;;
2868;SDS011;1442;47.448;8.582;2024-01-30T04:06:22;6.38;;;4.35;;
2868;SDS011;1442;47.448;8.582;2024-01-30T04:08:49;7.95;;;4.22;;
2868;SDS011;1442;47.448;8.582;2024-01-30T04:11:17;7.82;;;5.00;;
2868;SDS011;1442;47.448;8.582;2024-01-30T04:13:44;8.57;;;4.75;;
2868;SDS011;1442;47.448;8.582;2024-01-30T04:16:18;13.20;;;5.35;;
2868;SDS011;1442;47.448;8.582;2024-01-30T04:18:46;7.18;;;5.15;;
2868;SDS011;1442;47.448;8.582;2024-01-30T04:21:13;10.77;;;5.22;;
2868;SDS011;1442;47.448;8.582;2024-01-30T04:23:41;11.23;;;4.93;;
2868;SDS011;1442;47.448;8.582;2024-01-30T04:26:08;8.32;;;5.70;;
2868;SDS011;1442;47.448;8.582;2024-01-30T04:28:35;9.50;;;5.32;;
2868;SDS011;1442;47.448;8.582;2024-01-30T04:31:02;8.88;;;4.75;;
2868;SDS011;1442;47.448;8.582;2024-01-30T04:33:28;9.32;;;5.63;;
2868;SDS011;1442;47.448;8.582;2024-01-30T04:35:55;8.30;;;5.82;;
2868;SDS011;1442;47.448;8.582;2024-01-30T04:38:22;8.68;;;6.00;;
2868;SDS011;1442;47.448;8.582;2024-01-30T04:40:50;8.57;;;6.18;;
2868;SDS011;1442;47.448;8.582;2024-01-30T04:43:17;12.75;;;6.05;;
2868;SDS011;1442;47.448;8.582;2024-01-30T04:45:44;10.55;;;5.68;;
2868;SDS011;1442;47.448;8.582;2024-01-30T04:48:11;10.48;;;5.72;;
2868;SDS011;1442;47.448;8.582;2024-01-30T04:50:38;8.93;;;6.05;;
2868;SDS011;1442;47.448;8.582;2024-01-30T04:53:05;12.30;;;6.53;;
2868;SDS011;1442;47.448;8.582;2024-01-30T04:55:32;10.35;;;6.07;;
2868;SDS011;1442;47.448;8.582;2024-01-30T04:58:02;11.73;;;6.40;;
2868;SDS011;1442;47.448;8.582;2024-01-30T05:00:30;13.75;;;6.35;;
2868;SDS011;1442;47.448;8.582;2024-01-30T05:02:56;10.15;;;5.00;;
2868;SDS011;1442;47.448;8.582;2024-01-30T05:05:23;12.38;;;5.93;;
2868;SDS011;1442;47.448;8.582;2024-01-30T05:07:50;16.58;;;6.18;;
2868;SDS011;1442;47.448;8.582;2024-01-30T05:10:17;19.50;;;6.22;;
2868;SDS011;1442;47.448;8.582;2024-01-30T05:12:44;18.55;;;6.80;;
2868;SDS011;1442;47.448;8.582;2024-01-30T05:15:12;20.02;;;6.18;;
2868;SDS011;1442;47.448;8.582;2024-01-30T05:17:39;13.43;;;6.38;;
2868;SDS011;1442;47.448;8.582;2024-01-30T05:20:06;16.85;;;6.20;;
2868;SDS011;1442;47.448;8.582;2024-01-30T05:22:34;9.25;;;6.35;;
2868;SDS011;1442;47.448;8.582;2024-01-30T05:25:01;15.13;;;6.72;;
2868;SDS011;1442;47.448;8.582;2024-01-30T05:27:28;14.63;;;6.25;;
2868;SDS011;1442;47.448;8.582;2024-01-30T05:29:55;13.90;;;7.10;;
2868;SDS011;1442;47.448;8.582;2024-01-30T05:32:23;18.08;;;6.90;;
2868;SDS011;1442;47.448;8.582;2024-01-30T05:34:50;16.80;;;9.48;;
2868;SDS011;1442;47.448;8.582;2024-01-30T05:37:17;18.07;;;6.87;;
2868;SDS011;1442;47.448;8.582;2024-01-30T05:39:44;20.48;;;7.43;;
2868;SDS011;1442;47.448;8.582;2024-01-30T05:42:11;26.33;;;9.00;;
2868;SDS011;1442;47.448;8.582;2024-01-30T05:44:37;20.58;;;8.57;;
2868;SDS011;1442;47.448;8.582;2024-01-30T05:47:04;19.48;;;8.27;;
2868;SDS011;1442;47.448;8.582;2024-01-30T05:49:33;23.58;;;9.70;;
2868;SDS011;1442;47.448;8.582;2024-01-30T05:51:59;28.92;;;10.48;;
2868;SDS011;1442;47.448;8.582;2024-01-30T05:54:28;30.48;;;11.20;;
2868;SDS011;1442;47.448;8.582;2024-01-30T05:56:55;24.85;;;10.05;;
2868;SDS011;1442;47.448;8.582;2024-01-30T05:59:21;27.80;;;10.40;;
2868;SDS011;1442;47.448;8.582;2024-01-30T06:01:48;26.70;;;10.77;;
2868;SDS011;1442;47.448;8.582;2024-01-30T06:04:15;26.77;;;10.52;;
2868;SDS011;1442;47.448;8.582;2024-01-30T06:06:43;25.58;;;9.77;;
2868;SDS011;1442;47.448;8.582;2024-01-30T06:09:10;22.48;;;9.98;;
2868;SDS011;1442;47.448;8.582;2024-01-30T06:11:38;21.73;;;9.85;;
2868;SDS011;1442;47.448;8.582;2024-01-30T06:14:04;18.27;;;10.35;;
2868;SDS011;1442;47.448;8.582;2024-01-30T06:16:31;23.92;;;10.32;;
2868;SDS011;1442;47.448;8.582;2024-01-30T06:18:58;19.02;;;8.77;;
2868;SDS011;1442;47.448;8.582;2024-01-30T06:21:25;22.30;;;9.52;;
2868;SDS011;1442;47.448;8.582;2024-01-30T06:23:53;20.20;;;10.13;;
2868;SDS011;1442;47.448;8.582;2024-01-30T06:26:20;19.38;;;10.35;;
2868;SDS011;1442;47.448;8.582;2024-01-30T06:28:47;26.85;;;11.10;;
2868;SDS011;1442;47.448;8.582;2024-01-30T06:31:14;26.27;;;10.88;;
2868;SDS011;1442;47.448;8.582;2024-01-30T06:33:41;25.88;;;10.73;;
2868;SDS011;1442;47.448;8.582;2024-01-30T06:36:08;18.50;;;10.05;;
2868;SDS011;1442;47.448;8.582;2024-01-30T06:38:34;23.55;;;9.32;;
2868;SDS011;1442;47.448;8.582;2024-01-30T06:41:03;13.73;;;8.10;;
2868;SDS011;1442;47.448;8.582;2024-01-30T06:43:30;15.68;;;7.85;;
2868;SDS011;1442;47.448;8.582;2024-01-30T06:45:57;13.82;;;8.27;;
2868;SDS011;1442;47.448;8.582;2024-01-30T06:48:24;14.70;;;8.80;;
2868;SDS011;1442;47.448;8.582;2024-01-30T06:50:52;17.70;;;8.60;;
2868;SDS011;1442;47.448;8.582;2024-01-30T06:53:20;13.93;;;7.55;;
2868;SDS011;1442;47.448;8.582;2024-01-30T06:55:46;16.45;;;7.85;;
2868;SDS011;1442;47.448;8.582;2024-01-30T06:58:15;13.98;;;7.10;;
2868;SDS011;1442;47.448;8.582;2024-01-30T07:00:41;11.52;;;7.63;;
2868;SDS011;1442;47.448;8.582;2024-01-30T07:03:08;13.95;;;7.65;;
2868;SDS011;1442;47.448;8.582;2024-01-30T07:05:35;13.30;;;7.47;;
2868;SDS011;1442;47.448;8.582;2024-01-30T07:08:02;14.45;;;7.55;;
2868;SDS011;1442;47.448;8.582;2024-01-30T07:10:29;12.63;;;7.95;;
2868;SDS011;1442;47.448;8.582;2024-01-30T07:12:56;13.15;;;7.55;;
2868;SDS011;1442;47.448;8.582;2024-01-30T07:15:25;19.23;;;8.82;;
2868;SDS011;1442;47.448;8.582;2024-01-30T07:17:51;18.52;;;7.70;;
2868;SDS011;1442;47.448;8.582;2024-01-30T07:20:18;17.33;;;7.80;;
2868;SDS011;1442;47.448;8.582;2024-01-30T07:22:45;17.00;;;8.80;;
2868;SDS011;1442;47.448;8.582;2024-01-30T07:25:12;13.82;;;7.57;;
2868;SDS011;1442;47.448;8.582;2024-01-30T07:27:40;12.95;;;7.20;;
2868;SDS011;1442;47.448;8.582;2024-01-30T07:30:07;12.63;;;7.07;;
2868;SDS011;1442;47.448;8.582;2024-01-30T07:32:35;14.75;;;7.85;;
2868;SDS011;1442;47.448;8.582;2024-01-30T07:35:02;16.30;;;8.20;;
2868;SDS011;1442;47.448;8.582;2024-01-30T07:37:30;20.65;;;8.23;;
2868;SDS011;1442;47.448;8.582;2024-01-30T07:39:56;12.55;;;7.30;;
2868;SDS011;1442;47.448;8.582;2024-01-30T07:42:23;13.32;;;7.45;;
2868;SDS011;1442;47.448;8.582;2024-01-30T07:44:50;10.93;;;6.88;;
2868;SDS011;1442;47.448;8.582;2024-01-30T07:47:17;12.57;;;7.28;;
2868;SDS011;1442;47.448;8.582;2024-01-30T07:49:45;14.13;;;7.70;;
2868;SDS011;1442;47.448;8.582;2024-01-30T07:52:12;14.88;;;7.82;;
2868;SDS011;1442;47.448;8.582;2024-01-30T07:54:42;15.05;;;8.60;;
2868;SDS011;1442;47.448;8.582;2024-01-30T07:57:15;16.60;;;7.75;;
2868;SDS011;1442;47.448;8.582;2024-01-30T07:59:42;17.27;;;8.60;;
2868;SDS011;1442;47.448;8.582;2024-01-30T08:02:10;18.00;;;8.15;;
2868;SDS011;1442;47.448;8.582;2024-01-30T08:04:38;23.65;;;8.90;;
2868;SDS011;1442;47.448;8.582;2024-01-30T08:07:06;20.95;;;7.97;;
2868;SDS011;1442;47.448;8.582;2024-01-30T08:09:33;15.90;;;7.15;;
2868;SDS011;1442;47.448;8.582;2024-01-30T08:12:00;16.27;;;7.72;;
2868;SDS011;1442;47.448;8.582;2024-01-30T08:14:27;21.15;;;8.60;;
2868;SDS011;1442;47.448;8.582;2024-01-30T08:16:53;17.60;;;8.75;;
2868;SDS011;1442;47.448;8.582;2024-01-30T08:19:20;19.23;;;9.65;;
2868;SDS011;1442;47.448;8.582;2024-01-30T08:21:47;22.27;;;10.45;;
2868;SDS011;1442;47.448;8.582;2024-01-30T08:24:15;22.33;;;11.07;;
2868;SDS011;1442;47.448;8.582;2024-01-30T08:26:42;25.83;;;11.57;;
2868;SDS011;1442;47.448;8.582;2024-01-30T08:29:09;28.48;;;11.80;;
2868;SDS011;1442;47.448;8.582;2024-01-30T08:31:36;27.23;;;12.02;;
2868;SDS011;1442;47.448;8.582;2024-01-30T08:34:02;35.22;;;13.27;;
2868;SDS011;1442;47.448;8.582;2024-01-30T08:36:29;28.02;;;13.43;;
2868;SDS011;1442;47.448;8.582;2024-01-30T08:38:56;41.90;;;14.40;;
2868;SDS011;1442;47.448;8.582;2024-01-30T08:41:25;30.38;;;13.95;;
2868;SDS011;1442;47.448;8.582;2024-01-30T08:43:51;37.88;;;13.48;;
2868;SDS011;1442;47.448;8.582;2024-01-30T08:46:19;26.17;;;12.60;;
2868;SDS011;1442;47.448;8.582;2024-01-30T08:48:46;28.40;;;13.38;;
2868;SDS011;1442;47.448;8.582;2024-01-30T08:51:13;29.55;;;13.10;;
2868;SDS011;1442;47.448;8.582;2024-01-30T08:53:40;33.15;;;12.75;;
2868;SDS011;1442;47.448;8.582;2024-01-30T08:56:08;27.80;;;12.55;;
2868;SDS011;1442;47.448;8.582;2024-01-30T08:58:36;31.98;;;14.00;;
2868;SDS011;1442;47.448;8.582;2024-01-30T09:01:03;30.00;;;12.77;;
2868;SDS011;1442;47.448;8.582;2024-01-30T09:03:30;28.63;;;13.02;;
2868;SDS011;1442;47.448;8.582;2024-01-30T09:05:57;28.05;;;14.68;;
2868;SDS011;1442;47.448;8.582;2024-01-30T09:08:24;24.30;;;12.30;;
2868;SDS011;1442;47.448;8.582;2024-01-30T09:10:51;25.85;;;10.98;;
2868;SDS011;1442;47.448;8.582;2024-01-30T09:13:18;21.55;;;11.68;;
2868;SDS011;1442;47.448;8.582;2024-01-30T09:15:46;23.17;;;12.30;;
2868;SDS011;1442;47.448;8.582;2024-01-30T09:18:13;27.35;;;11.38;;
2868;SDS011;1442;47.448;8.582;2024-01-30T09:20:40;26.60;;;10.88;;
2868;SDS011;1442;47.448;8.582;2024-01-30T09:23:07;15.43;;;8.90;;
2868;SDS011;1442;47.448;8.582;2024-01-30T09:25:33;16.48;;;9.32;;
2868;SDS011;1442;47.448;8.582;2024-01-30T09:28:00;15.98;;;8.85;;
2868;SDS011;1442;47.448;8.582;2024-01-30T09:30:27;15.80;;;9.32;;
2868;SDS011;1442;47.448;8.582;2024-01-30T09:32:55;16.58;;;8.02;;
2868;SDS011;1442;47.448;8.582;2024-01-30T09:35:22;16.70;;;8.45;;
2868;SDS011;1442;47.448;8.582;2024-01-30T09:37:49;15.43;;;8.45;;
2868;SDS011;1442;47.448;8.582;2024-01-30T09:40:16;17.80;;;8.40;;
2868;SDS011;1442;47.448;8.582;2024-01-30T09:42:44;13.13;;;7.93;;
2868;SDS011;1442;47.448;8.582;2024-01-30T09:45:13;16.38;;;7.93;;
2868;SDS011;1442;47.448;8.582;2024-01-30T09:47:40;21.05;;;8.27;;
2868;SDS011;1442;47.448;8.582;2024-01-30T09:50:10;16.17;;;8.35;;
2868;SDS011;1442;47.448;8.582;2024-01-30T09:52:38;20.08;;;8.57;;
2868;SDS011;1442;47.448;8.582;2024-01-30T09:55:06;16.35;;;7.25;;
2868;SDS011;1442;47.448;8.582;2024-01-30T09:57:33;14.20;;;7.78;;
2868;SDS011;1442;47.448;8.582;2024-01-30T10:00:00;15.13;;;8.38;;
2868;SDS011;1442;47.448;8.582;2024-01-30T10:02:27;15.82;;;8.07;;
2868;SDS011;1442;47.448;8.582;2024-01-30T10:04:54;13.63;;;7.85;;
2868;SDS011;1442;47.448;8.582;2024-01-30T10:07:22;15.10;;;7.88;;
2868;SDS011;1442;47.448;8.582;2024-01-30T10:09:49;11.85;;;7.45;;
2868;SDS011;1442;47.448;8.582;2024-01-30T10:12:16;21.58;;;8.32;;
2868;SDS011;1442;47.448;8.582;2024-01-30T10:14:44;17.88;;;8.55;;
2868;SDS011;1442;47.448;8.582;2024-01-30T10:17:11;15.57;;;7.35;;
2868;SDS011;1442;47.448;8.582;2024-01-30T10:19:39;16.45;;;8.23;;
2868;SDS011;1442;47.448;8.582;2024-01-30T10:22:06;14.00;;;8.15;;
2868;SDS011;1442;47.448;8.582;2024-01-30T10:24:35;13.85;;;7.47;;
2868;SDS011;1442;47.448;8.582;2024-01-30T10:27:02;14.82;;;8.50;;
2868;SDS011;1442;47.448;8.582;2024-01-30T10:29:31;11.25;;;7.88;;
2868;SDS011;1442;47.448;8.582;2024-01-30T10:31:58;17.67;;;7.43;;
2868;SDS011;1442;47.448;8.582;2024-01-30T10:34:25;12.52;;;8.18;;
2868;SDS011;1442;47.448;8.582;2024-01-30T10:36:55;15.48;;;8.55;;
2868;SDS011;1442;47.448;8.582;2024-01-30T10:39:27;15.93;;;8.00;;
2868;SDS011;1442;47.448;8.582;2024-01-30T10:41:58;14.82;;;9.38;;
2868;SDS011;1442;47.448;8.582;2024-01-30T10:44:30;19.13;;;8.73;;
2868;SDS011;1442;47.448;8.582;2024-01-30T10:47:11;9.73;;;7.05;;
2868;SDS011;1442;47.448;8.582;2024-01-30T10:49:39;15.23;;;8.20;;
2868;SDS011;1442;47.448;8.582;2024-01-30T10:52:08;11.38;;;7.68;;
2868;SDS011;1442;47.448;8.582;2024-01-30T10:54:36;21.77;;;7.70;;
2868;SDS011;1442;47.448;8.582;2024-01-30T10:57:07;13.68;;;8.55;;
2868;SDS011;1442;47.448;8.582;2024-01-30T10:59:35;14.50;;;7.90;;
2868;SDS011;1442;47.448;8.582;2024-01-30T11:02:03;12.68;;;7.57;;
2868;SDS011;1442;47.448;8.582;2024-01-30T11:04:35;12.20;;;7.57;;
2868;SDS011;1442;47.448;8.582;2024-01-30T11:07:03;13.35;;;7.40;;
2868;SDS011;1442;47.448;8.582;2024-01-30T11:09:40;12.13;;;7.28;;
2868;SDS011;1442;47.448;8.582;2024-01-30T11:12:13;14.73;;;8.13;;
2868;SDS011;1442;47.448;8.582;2024-01-30T11:14:39;12.65;;;7.68;;
2868;SDS011;1442;47.448;8.582;2024-01-30T11:17:08;13.75;;;7.30;;
2868;SDS011;1442;47.448;8.582;2024-01-30T11:19:37;13.73;;;8.05;;
2868;SDS011;1442;47.448;8.582;2024-01-30T11:22:06;14.02;;;7.53;;
2868;SDS011;1442;47.448;8.582;2024-01-30T11:24:36;12.15;;;7.35;;
2868;SDS011;1442;47.448;8.582;2024-01-30T11:27:08;9.82;;;6.80;;
2868;SDS011;1442;47.448;8.582;2024-01-30T11:29:36;14.60;;;7.88;;
2868;SDS011;1442;47.448;8.582;2024-01-30T11:32:03;13.63;;;8.07;;
2868;SDS011;1442;47.448;8.582;2024-01-30T11:34:32;10.30;;;7.30;;
2868;SDS011;1442;47.448;8.582;2024-01-30T11:37:02;11.77;;;6.93;;
2868;SDS011;1442;47.448;8.582;2024-01-30T11:39:35;19.90;;;8.52;;
2868;SDS011;1442;47.448;8.582;2024-01-30T11:42:04;13.55;;;7.43;;
2868;SDS011;1442;47.448;8.582;2024-01-30T11:44:33;11.18;;;7.50;;
2868;SDS011;1442;47.448;8.582;2024-01-30T11:47:02;10.63;;;7.80;;
2868;SDS011;1442;47.448;8.582;2024-01-30T11:49:29;9.95;;;7.10;;
2868;SDS011;1442;47.448;8.582;2024-01-30T11:51:56;12.70;;;7.93;;
2868;SDS011;1442;47.448;8.582;2024-01-30T11:54:23;12.80;;;7.80;;
2868;SDS011;1442;47.448;8.582;2024-01-30T11:56:50;15.13;;;7.68;;
2868;SDS011;1442;47.448;8.582;2024-01-30T11:59:16;15.52;;;7.43;;
2868;SDS011;1442;47.448;8.582;2024-01-30T12:01:43;14.68;;;8.02;;
2868;SDS011;1442;47.448;8.582;2024-01-30T12:04:12;15.93;;;7.97;;
2868;SDS011;1442;47.448;8.582;2024-01-30T12:06:38;11.63;;;7.80;;
2868;SDS011;1442;47.448;8.582;2024-01-30T12:09:06;16.45;;;8.20;;
2868;SDS011;1442;47.448;8.582;2024-01-30T12:11:42;17.15;;;8.10;;
2868;SDS011;1442;47.448;8.582;2024-01-30T12:14:10;11.18;;;7.90;;
2868;SDS011;1442;47.448;8.582;2024-01-30T12:16:38;11.10;;;7.80;;
2868;SDS011;1442;47.448;8.582;2024-01-30T12:19:05;14.80;;;8.65;;
2868;SDS011;1442;47.448;8.582;2024-01-30T12:21:33;14.93;;;9.27;;
2868;SDS011;1442;47.448;8.582;2024-01-30T12:24:01;12.25;;;8.43;;
2868;SDS011;1442;47.448;8.582;2024-01-30T12:26:28;16.88;;;9.32;;
2868;SDS011;1442;47.448;8.582;2024-01-30T12:28:55;17.17;;;9.25;;
2868;SDS011;1442;47.448;8.582;2024-01-30T12:31:25;11.38;;;7.72;;
2868;SDS011;1442;47.448;8.582;2024-01-30T12:33:52;10.43;;;7.35;;
2868;SDS011;1442;47.448;8.582;2024-01-30T12:36:19;12.50;;;7.90;;
2868;SDS011;1442;47.448;8.582;2024-01-30T12:38:48;14.23;;;8.90;;
2868;SDS011;1442;47.448;8.582;2024-01-30T12:41:15;10.50;;;7.47;;
2868;SDS011;1442;47.448;8.582;2024-01-30T12:43:42;14.55;;;8.73;;
2868;SDS011;1442;47.448;8.582;2024-01-30T12:46:09;12.55;;;7.65;;
2868;SDS011;1442;47.448;8.582;2024-01-30T12:48:36;13.63;;;8.45;;
2868;SDS011;1442;47.448;8.582;2024-01-30T12:51:03;13.20;;;8.13;;
2868;SDS011;1442;47.448;8.582;2024-01-30T12:53:30;15.63;;;8.85;;
2868;SDS011;1442;47.448;8.582;2024-01-30T12:55:59;13.68;;;8.02;;
2868;SDS011;1442;47.448;8.582;2024-01-30T12:58:26;13.93;;;8.50;;
2868;SDS011;1442;47.448;8.582;2024-01-30T13:00:52;13.35;;;8.73;;
2868;SDS011;1442;47.448;8.582;2024-01-30T13:03:20;25.05;;;9.88;;
2868;SDS011;1442;47.448;8.582;2024-01-30T13:05:46;17.40;;;10.07;;
2868;SDS011;1442;47.448;8.582;2024-01-30T13:08:13;15.73;;;9.80;;
2868;SDS011;1442;47.448;8.582;2024-01-30T13:10:40;17.25;;;9.07;;
2868;SDS011;1442;47.448;8.582;2024-01-30T13:13:08;14.25;;;9.40;;
2868;SDS011;1442;47.448;8.582;2024-01-30T13:15:35;21.33;;;9.88;;
2868;SDS011;1442;47.448;8.582;2024-01-30T13:18:02;17.50;;;10.15;;
2868;SDS011;1442;47.448;8.582;2024-01-30T13:20:30;14.82;;;9.63;;
2868;SDS011;1442;47.448;8.582;2024-01-30T13:22:57;16.27;;;9.07;;
2868;SDS011;1442;47.448;8.582;2024-01-30T13:25:23;12.10;;;8.45;;
2868;SDS011;1442;47.448;8.582;2024-01-30T13:27:50;13.40;;;8.23;;
2868;SDS011;1442;47.448;8.582;2024-01-30T13:30:19;18.63;;;8.25;;
2868;SDS011;1442;47.448;8.582;2024-01-30T13:32:46;15.45;;;9.07;;
2868;SDS011;1442;47.448;8.582;2024-01-30T13:35:13;13.73;;;9.25;;
2868;SDS011;1442;47.448;8.582;2024-01-30T13:37:39;15.50;;;8.25;;
2868;SDS011;1442;47.448;8.582;2024-01-30T13:40:07;12.82;;;8.10;;
2868;SDS011;1442;47.448;8.582;2024-01-30T13:42:34;14.18;;;8.10;;
2868;SDS011;1442;47.448;8.582;2024-01-30T13:45:02;12.43;;;7.88;;
2868;SDS011;1442;47.448;8.582;2024-01-30T13:47:30;16.88;;;7.63;;
2868;SDS011;1442;47.448;8.582;2024-01-30T13:49:57;11.50;;;7.57;;
2868;SDS011;1442;47.448;8.582;2024-01-30T13:52:24;11.32;;;7.25;;
2868;SDS011;1442;47.448;8.582;2024-01-30T13:54:52;11.38;;;7.63;;
2868;SDS011;1442;47.448;8.582;2024-01-30T13:57:19;13.85;;;8.07;;
2868;SDS011;1442;47.448;8.582;2024-01-30T13:59:45;14.43;;;7.55;;
2868;SDS011;1442;47.448;8.582;2024-01-30T14:02:12;12.27;;;7.00;;
2868;SDS011;1442;47.448;8.582;2024-01-30T14:04:40;12.50;;;7.63;;
2868;SDS011;1442;47.448;8.582;2024-01-30T14:07:08;15.90;;;7.47;;
2868;SDS011;1442;47.448;8.582;2024-01-30T14:09:35;12.50;;;7.15;;
2868;SDS011;1442;47.448;8.582;2024-01-30T14:12:02;13.38;;;7.32;;
2868;SDS011;1442;47.448;8.582;2024-01-30T14:14:29;10.90;;;7.53;;
2868;SDS011;1442;47.448;8.582;2024-01-30T14:16:56;14.20;;;7.22;;
2868;SDS011;1442;47.448;8.582;2024-01-30T14:19:23;10.85;;;7.25;;
2868;SDS011;1442;47.448;8.582;2024-01-30T14:21:51;11.00;;;7.32;;
2868;SDS011;1442;47.448;8.582;2024-01-30T14:24:18;12.95;;;7.82;;
2868;SDS011;1442;47.448;8.582;2024-01-30T14:26:44;13.82;;;8.07;;
2868;SDS011;1442;47.448;8.582;2024-01-30T14:29:11;13.70;;;7.95;;
2868;SDS011;1442;47.448;8.582;2024-01-30T14:31:38;14.45;;;7.43;;
2868;SDS011;1442;47.448;8.582;2024-01-30T14:34:05;13.25;;;7.18;;
2868;SDS011;1442;47.448;8.582;2024-01-30T14:36:33;13.68;;;6.70;;
2868;SDS011;1442;47.448;8.582;2024-01-30T14:39:01;10.68;;;6.85;;
2868;SDS011;1442;47.448;8.582;2024-01-30T14:41:28;16.10;;;7.75;;
2868;SDS011;1442;47.448;8.582;2024-01-30T14:43:55;13.90;;;7.05;;
2868;SDS011;1442;47.448;8.582;2024-01-30T14:46:22;13.60;;;6.63;;
2868;SDS011;1442;47.448;8.582;2024-01-30T14:48:49;10.25;;;6.53;;
2868;SDS011;1442;47.448;8.582;2024-01-30T14:51:16;12.60;;;6.35;;
2868;SDS011;1442;47.448;8.582;2024-01-30T14:53:43;9.70;;;6.63;;
2868;SDS011;1442;47.448;8.582;2024-01-30T14:56:11;14.38;;;6.75;;
2868;SDS011;1442;47.448;8.582;2024-01-30T14:58:38;10.57;;;6.60;;
2868;SDS011;1442;47.448;8.582;2024-01-30T15:01:06;10.18;;;6.72;;
2868;SDS011;1442;47.448;8.582;2024-01-30T15:03:33;7.22;;;6.07;;